createdAt,value
2022-11-23T00:01:24.243Z,77.60
2022-11-23T00:05:28.595Z,77.50
2022-11-23T00:09:31.682Z,77.60
2022-11-23T00:13:39.401Z,77.60
2022-11-23T00:17:42.410Z,77.60
2022-11-23T00:21:45.392Z,77.50
2022-11-23T00:25:48.149Z,77.50
2022-11-23T00:29:51.185Z,77.40
2022-11-23T00:33:55.695Z,77.40
2022-11-23T00:37:58.969Z,77.30
2022-11-23T00:42:02.616Z,77.30
2022-11-23T00:46:26.498Z,77.30
2022-11-23T00:50:29.325Z,77.10
2022-11-23T00:54:32.081Z,77.20
2022-11-23T00:58:37.450Z,77.20
2022-11-23T01:02:40.286Z,77.10
2022-11-23T01:06:43.012Z,77.10
2022-11-23T01:10:46.157Z,77.10
2022-11-23T01:14:48.969Z,77.10
2022-11-23T01:18:56.249Z,77.10
2022-11-23T01:22:59.280Z,77.30
2022-11-23T01:27:02.123Z,77.30
2022-11-23T01:31:14.180Z,77.40
2022-11-23T01:35:22.403Z,77.50
2022-11-23T01:39:25.325Z,77.50
2022-11-23T01:43:28.385Z,77.60
2022-11-23T01:47:31.724Z,77.70
2022-11-23T01:51:41.223Z,77.70
2022-11-23T01:55:46.544Z,77.80
2022-11-23T01:59:51.074Z,77.80
2022-11-23T02:03:56.083Z,77.80
2022-11-23T02:08:01.369Z,77.80
2022-11-23T02:12:10.904Z,77.90
2022-11-23T02:16:14.911Z,78.00
2022-11-23T02:20:19.094Z,78.00
2022-11-23T02:24:33.796Z,78.00
2022-11-23T02:28:48.056Z,78.00
2022-11-23T02:32:50.982Z,78.10
2022-11-23T02:36:56.615Z,78.10
2022-11-23T02:40:59.729Z,78.00
2022-11-23T02:45:33.360Z,78.10
2022-11-23T02:49:37.575Z,78.20
2022-11-23T02:53:40.337Z,78.20
2022-11-23T02:57:45.568Z,78.40
2022-11-23T03:01:49.130Z,78.50
2022-11-23T03:05:51.918Z,78.60
2022-11-23T03:09:55.299Z,78.70
2022-11-23T03:13:58.291Z,78.70
2022-11-23T03:18:02.536Z,78.90
2022-11-23T03:22:06.872Z,79.00
2022-11-23T03:26:13.188Z,79.10
2022-11-23T03:30:25.480Z,79.20
2022-11-23T03:34:29.683Z,79.20
2022-11-23T03:38:32.882Z,79.20
2022-11-23T03:42:36.057Z,79.10
2022-11-23T03:46:39.141Z,79.10
2022-11-23T03:50:42.478Z,79.10
2022-11-23T03:54:47.401Z,79.00
2022-11-23T03:58:50.622Z,79.10
2022-11-23T04:02:54.854Z,79.10
2022-11-23T04:07:23.668Z,79.10
2022-11-23T04:11:30.484Z,79.10
2022-11-23T04:15:33.267Z,79.20
2022-11-23T04:19:36.767Z,79.20
2022-11-23T04:23:39.707Z,79.20
2022-11-23T04:27:46.330Z,79.20
2022-11-23T04:31:50.054Z,79.20
2022-11-23T04:35:54.814Z,79.20
2022-11-23T04:39:57.954Z,79.40
2022-11-23T04:44:11.716Z,79.50
2022-11-23T04:48:16.603Z,79.60
2022-11-23T04:52:19.365Z,79.80
2022-11-23T04:56:23.776Z,79.90
2022-11-23T05:00:27.830Z,80.00
2022-11-23T05:04:34.480Z,80.10
2022-11-23T05:08:38.687Z,80.10
2022-11-23T05:13:07.384Z,80.00
2022-11-23T05:17:10.989Z,79.90
2022-11-23T05:21:16.498Z,79.90
2022-11-23T05:25:19.900Z,80.00
2022-11-23T05:29:29.427Z,80.10
2022-11-23T05:33:32.797Z,80.20
2022-11-23T05:37:36.400Z,80.20
2022-11-23T05:41:42.946Z,80.10
2022-11-23T05:46:02.075Z,80.10
2022-11-23T05:50:07.455Z,80.20
2022-11-23T05:54:12.686Z,80.40
2022-11-23T05:58:47.505Z,80.50
2022-11-23T06:02:50.363Z,80.60
2022-11-23T06:06:54.850Z,80.50
2022-11-23T06:11:01.600Z,80.50
2022-11-23T06:15:07.013Z,80.50
2022-11-23T06:19:10.601Z,80.40
2022-11-23T06:23:17.840Z,80.20
2022-11-23T06:27:20.859Z,80.20
2022-11-23T06:31:26.859Z,80.20
2022-11-23T06:35:29.930Z,80.20
2022-11-23T06:39:33.287Z,80.20
2022-11-23T06:43:37.779Z,80.30
2022-11-23T06:47:41.372Z,80.20
2022-11-23T06:51:46.240Z,80.10
2022-11-23T06:55:49.342Z,80.10
2022-11-23T06:59:54.766Z,80.00
2022-11-23T07:04:03.740Z,80.20
2022-11-23T07:08:11.176Z,80.20
2022-11-23T07:12:15.041Z,80.20
2022-11-23T07:16:19.385Z,80.20
2022-11-23T07:20:22.331Z,80.30
2022-11-23T07:24:25.263Z,80.20
2022-11-23T07:28:28.112Z,80.30
2022-11-23T07:32:31.000Z,80.30
2022-11-23T07:36:33.851Z,80.30
2022-11-23T07:40:38.132Z,80.30
2022-11-23T07:44:43.055Z,80.20
2022-11-23T07:48:46.589Z,80.20
2022-11-23T07:52:49.867Z,80.30
2022-11-23T07:56:52.664Z,80.40
2022-11-23T08:00:55.603Z,80.40
2022-11-23T08:04:58.689Z,80.30
2022-11-23T08:09:01.446Z,80.30
2022-11-23T08:13:06.544Z,80.20
2022-11-23T08:17:09.427Z,80.20
2022-11-23T08:21:12.367Z,80.00
2022-11-23T08:25:15.374Z,79.80
2022-11-23T08:29:18.127Z,79.80
2022-11-23T08:33:20.986Z,79.70
2022-11-23T08:37:23.770Z,79.70
2022-11-23T08:41:27.441Z,79.70
2022-11-23T08:45:30.209Z,79.60
2022-11-23T08:49:33.625Z,79.50
2022-11-23T08:53:37.498Z,79.40
2022-11-23T08:57:40.382Z,79.40
2022-11-23T09:01:43.735Z,79.30
2022-11-23T09:05:46.670Z,79.10
2022-11-23T09:09:49.441Z,79.00
2022-11-23T09:13:52.756Z,78.80
2022-11-23T09:17:56.568Z,78.60
2022-11-23T09:21:59.378Z,78.50
2022-11-23T09:26:03.951Z,78.20
2022-11-23T09:30:07.459Z,78.00
2022-11-23T09:34:13.816Z,77.30
2022-11-23T09:38:17.128Z,76.90
2022-11-23T09:42:40.974Z,77.00
2022-11-23T09:47:19.574Z,76.30
2022-11-23T09:51:23.584Z,76.00
2022-11-23T09:55:39.802Z,76.30
2022-11-23T09:59:50.179Z,75.80
2022-11-23T10:03:53.436Z,75.40
2022-11-23T10:08:02.024Z,75.00
2022-11-23T10:12:10.941Z,74.40
2022-11-23T10:16:41.116Z,73.70
2022-11-23T10:21:02.617Z,73.40
2022-11-23T10:25:22.728Z,73.60
2022-11-23T10:29:38.314Z,73.70
2022-11-23T10:34:01.291Z,73.50
2022-11-23T10:38:19.148Z,72.20
2022-11-23T10:42:29.537Z,72.30
2022-11-23T10:46:39.459Z,71.90
2022-11-23T10:50:42.418Z,71.30
2022-11-23T10:54:52.705Z,71.10
2022-11-23T10:58:55.790Z,70.70
2022-11-23T11:02:59.792Z,70.80
2022-11-23T11:07:22.479Z,70.10
2022-11-23T11:11:31.290Z,69.20
2022-11-23T11:15:36.210Z,69.70
2022-11-23T11:19:41.741Z,69.40
2022-11-23T11:24:00.194Z,68.10
2022-11-23T11:28:05.307Z,67.80
2022-11-23T11:32:43.264Z,67.50
2022-11-23T11:37:11.235Z,67.60
2022-11-23T11:41:15.825Z,67.60
2022-11-23T11:45:37.772Z,67.40
2022-11-23T11:49:46.114Z,66.20
2022-11-23T11:54:04.513Z,66.20
2022-11-23T11:58:12.885Z,65.60
2022-11-23T12:02:26.900Z,64.20
2022-11-23T12:06:50.465Z,64.60
2022-11-23T12:10:59.323Z,64.40
2022-11-23T12:15:11.055Z,64.60
2022-11-23T12:19:43.977Z,64.70
2022-11-23T12:24:21.094Z,63.50
2022-11-23T12:28:52.412Z,63.20
2022-11-23T12:33:04.429Z,62.20
2022-11-23T12:37:33.756Z,61.70
2022-11-23T12:42:06.408Z,61.60
2022-11-23T12:46:25.775Z,61.90
2022-11-23T12:51:23.944Z,60.80
2022-11-23T12:56:00.045Z,61.10
2022-11-23T13:00:13.300Z,60.50
2022-11-23T13:04:40.202Z,61.10
2022-11-23T13:09:10.457Z,61.10
2022-11-23T13:13:21.594Z,61.10
2022-11-23T13:17:36.435Z,61.70
2022-11-23T13:21:43.676Z,62.40
2022-11-23T13:26:15.748Z,62.10
2022-11-23T13:31:13.539Z,61.80
2022-11-23T13:34:53.752Z,62.00
2022-11-23T13:38:57.659Z,61.60
2022-11-23T13:43:05.566Z,61.00
2022-11-23T13:47:20.314Z,60.80
2022-11-23T13:51:33.653Z,61.20
2022-11-23T13:55:38.710Z,60.90
2022-11-23T13:59:41.680Z,60.60
2022-11-23T14:03:48.986Z,60.70
2022-11-23T14:07:52.577Z,60.40
2022-11-23T14:12:03.828Z,60.70
2022-11-23T14:16:13.034Z,60.90
2022-11-23T14:20:24.913Z,61.20
2022-11-23T14:24:46.015Z,61.50
2022-11-23T14:29:07.710Z,61.80
2022-11-23T14:33:49.086Z,62.00
2022-11-23T14:38:20.474Z,61.90
2022-11-23T14:42:27.346Z,61.90
2022-11-23T14:46:30.422Z,62.10
2022-11-23T14:50:34.293Z,62.00
2022-11-23T14:54:38.727Z,62.00
2022-11-23T14:58:41.741Z,62.00
2022-11-23T15:02:44.545Z,62.10
2022-11-23T15:06:49.714Z,62.50
2022-11-23T15:11:12.845Z,62.90
2022-11-23T15:15:22.021Z,63.20
2022-11-23T15:19:29.642Z,63.30
2022-11-23T15:23:38.689Z,63.60
2022-11-23T15:27:42.590Z,63.60
2022-11-23T15:32:06.802Z,64.20
2022-11-23T15:36:08.450Z,64.40
2022-11-23T15:40:16.356Z,65.00
2022-11-23T15:44:31.461Z,65.50
2022-11-23T15:48:35.665Z,66.00
2022-11-23T15:52:38.646Z,66.10
2022-11-23T15:56:45.798Z,66.00
2022-11-23T16:00:53.559Z,66.00
2022-11-23T16:05:16.117Z,66.20
2022-11-23T16:09:51.619Z,66.30
2022-11-23T16:14:10.423Z,66.50
2022-11-23T16:18:18.926Z,66.70
2022-11-23T16:22:30.858Z,67.30
2022-11-23T16:26:34.258Z,67.50
2022-11-23T16:30:39.612Z,67.50
2022-11-23T16:34:42.333Z,67.50
2022-11-23T16:38:45.406Z,67.40
2022-11-23T16:42:52.940Z,67.60
2022-11-23T16:46:55.756Z,68.40
2022-11-23T16:50:58.443Z,68.50
2022-11-23T16:55:01.367Z,69.00
2022-11-23T16:59:04.506Z,69.20
2022-11-23T17:03:14.599Z,69.40
2022-11-23T17:07:18.484Z,70.20
2022-11-23T17:11:23.842Z,70.30
2022-11-23T17:15:26.916Z,70.40
2022-11-23T17:19:32.717Z,70.50
2022-11-23T17:23:36.363Z,70.90
2022-11-23T17:27:41.940Z,71.20
2022-11-23T17:31:45.726Z,71.50
2022-11-23T17:35:48.817Z,71.40
2022-11-23T17:39:52.145Z,71.60
2022-11-23T17:43:55.311Z,71.70
2022-11-23T17:48:02.944Z,71.80
2022-11-23T17:52:06.215Z,71.80
2022-11-23T17:56:17.718Z,72.40
2022-11-23T18:00:23.059Z,72.90
2022-11-23T18:04:25.791Z,72.80
2022-11-23T18:08:30.166Z,73.00
2022-11-23T18:12:34.402Z,73.30
2022-11-23T18:16:38.217Z,73.50
2022-11-23T18:20:41.127Z,73.60
2022-11-23T18:24:44.096Z,73.60
2022-11-23T18:28:47.230Z,73.40
2022-11-23T18:32:50.285Z,73.00
2022-11-23T18:36:53.447Z,72.40
2022-11-23T18:40:56.524Z,72.00
2022-11-23T18:44:59.710Z,72.20
2022-11-23T18:49:02.515Z,72.50
2022-11-23T18:53:06.283Z,72.50
2022-11-23T18:57:09.576Z,72.70
2022-11-23T19:01:18.839Z,72.70
2022-11-23T19:05:22.785Z,72.60
2022-11-23T19:09:25.603Z,72.60
2022-11-23T19:13:28.740Z,72.90
2022-11-23T19:17:31.572Z,73.40
2022-11-23T19:21:36.591Z,73.90
2022-11-23T19:25:39.814Z,74.40
2022-11-23T19:29:43.057Z,74.50
2022-11-23T19:33:47.910Z,74.40
2022-11-23T19:37:52.671Z,74.50
2022-11-23T19:41:55.834Z,74.70
2022-11-23T19:46:02.454Z,75.00
2022-11-23T19:50:05.771Z,75.90
2022-11-23T19:54:10.083Z,76.70
2022-11-23T19:58:14.380Z,76.90
2022-11-23T20:02:25.439Z,77.40
2022-11-23T20:06:31.190Z,77.20
2022-11-23T20:10:34.136Z,77.10
2022-11-23T20:14:36.881Z,77.60
2022-11-23T20:18:40.522Z,77.70
2022-11-23T20:22:45.050Z,78.20
2022-11-23T20:26:47.835Z,78.30
2022-11-23T20:30:51.486Z,78.10
2022-11-23T20:34:54.562Z,78.30
2022-11-23T20:38:58.328Z,78.50
2022-11-23T20:43:03.905Z,78.70
2022-11-23T20:47:06.850Z,79.20
2022-11-23T20:51:10.830Z,79.00
2022-11-23T20:55:16.176Z,78.90
2022-11-23T20:59:19.839Z,79.10
2022-11-23T21:03:25.166Z,79.10
2022-11-23T21:07:28.375Z,79.10
2022-11-23T21:11:49.679Z,79.40
2022-11-23T21:15:52.664Z,79.40
2022-11-23T21:19:55.687Z,79.20
2022-11-23T21:23:58.804Z,79.20
2022-11-23T21:28:03.369Z,79.10
2022-11-23T21:32:06.621Z,79.10
2022-11-23T21:36:12.093Z,79.10
2022-11-23T21:40:15.648Z,79.20
2022-11-23T21:44:19.317Z,79.30
2022-11-23T21:48:22.259Z,79.50
2022-11-23T21:52:25.062Z,79.60
2022-11-23T21:56:29.660Z,79.70
2022-11-23T22:00:32.627Z,79.80
2022-11-23T22:04:37.934Z,79.80
2022-11-23T22:08:50.079Z,79.80
2022-11-23T22:12:52.937Z,79.70
2022-11-23T22:16:56.855Z,79.70
2022-11-23T22:21:04.361Z,79.70
2022-11-23T22:25:07.461Z,79.80
2022-11-23T22:29:10.778Z,79.80
2022-11-23T22:33:13.971Z,80.00
2022-11-23T22:37:17.018Z,80.30
2022-11-23T22:41:19.928Z,80.30
2022-11-23T22:45:22.769Z,80.20
2022-11-23T22:49:25.813Z,80.30
2022-11-23T22:53:29.895Z,80.20
2022-11-23T22:57:32.730Z,80.30
2022-11-23T23:01:35.583Z,80.30
2022-11-23T23:05:38.831Z,80.20
2022-11-23T23:09:41.735Z,80.10
2022-11-23T23:13:44.516Z,80.00
2022-11-23T23:17:47.709Z,80.10
2022-11-23T23:21:50.973Z,80.30
2022-11-23T23:25:54.588Z,80.20
2022-11-23T23:29:57.389Z,80.10
2022-11-23T23:34:00.563Z,80.20
2022-11-23T23:38:03.388Z,80.10
2022-11-23T23:42:07.773Z,80.00
2022-11-23T23:46:12.689Z,80.20
2022-11-23T23:50:16.061Z,80.20
2022-11-23T23:54:19.156Z,80.20
2022-11-23T23:58:21.944Z,80.30
